createdAt,value
2023-05-01T00:02:01.712Z,9.95
2023-05-01T00:16:58.408Z,9.64
2023-05-01T00:31:54.255Z,9.37
2023-05-01T00:46:50.630Z,9.55
2023-05-01T01:01:47.598Z,9.52
2023-05-01T01:16:43.318Z,9.64
2023-05-01T01:31:39.533Z,9.78
2023-05-01T01:46:36.478Z,9.73
2023-05-01T02:01:32.691Z,9.94
2023-05-01T02:16:28.858Z,9.96
2023-05-01T02:31:25.252Z,9.87
2023-05-01T02:46:21.578Z,10.08
2023-05-01T03:01:17.630Z,9.96
2023-05-01T03:16:13.466Z,9.83
2023-05-01T03:31:09.340Z,9.76
2023-05-01T03:46:05.412Z,9.77
2023-05-01T04:01:01.743Z,9.93
2023-05-01T04:15:58.114Z,9.93
2023-05-01T04:30:54.270Z,10
2023-05-01T04:45:49.749Z,10.13
2023-05-01T05:00:45.931Z,10.11
2023-05-01T05:15:42.397Z,10.4
2023-05-01T05:30:39.009Z,10.82
2023-05-01T05:45:35.673Z,11.37
2023-05-01T06:00:31.970Z,11.57
2023-05-01T06:15:28.173Z,11.99
2023-05-01T06:30:24.908Z,11.84
2023-05-01T06:45:21.252Z,12.31
2023-05-01T07:00:17.538Z,12.56
2023-05-01T07:15:13.907Z,12.56
2023-05-01T07:30:10.364Z,13.2
2023-05-01T07:45:07.094Z,14.18
2023-05-01T08:00:04.013Z,14.15
2023-05-01T08:15:00.940Z,14.69
2023-05-01T08:29:57.426Z,15.51
2023-05-01T08:44:54.007Z,15.72
2023-05-01T08:59:50.883Z,16.68
2023-05-01T09:14:47.777Z,17.22
2023-05-01T09:29:44.444Z,17.99
2023-05-01T09:44:40.892Z,19.04
2023-05-01T09:59:37.668Z,17.51
2023-05-01T10:29:30.997Z,19.18
2023-05-01T10:44:27.538Z,19.17
2023-05-01T10:59:23.410Z,18.56
2023-05-01T11:14:19.551Z,18.61
2023-05-01T11:29:16.082Z,20.61
2023-05-01T11:44:13.954Z,20.78
2023-05-01T11:59:10.932Z,20.99
2023-05-01T12:14:07.421Z,19.64
2023-05-01T12:29:02.713Z,18.72
2023-05-01T12:43:58.150Z,17.58
2023-05-01T12:58:53.199Z,16.78
2023-05-01T13:13:49.687Z,16.96
2023-05-01T13:28:45.240Z,16.52
2023-05-01T13:43:41.708Z,16.65
2023-05-01T13:58:37.354Z,17.1
2023-05-01T14:13:33.749Z,17.07
2023-05-01T14:28:29.578Z,16.94
2023-05-01T14:43:25.561Z,16.78
2023-05-01T14:58:21.563Z,15.89
2023-05-01T15:13:17.311Z,15.62
2023-05-01T15:28:13.719Z,15.62
2023-05-01T15:43:09.826Z,15.8
2023-05-01T15:58:06.079Z,15.25
2023-05-01T16:13:01.533Z,15.19
2023-05-01T16:27:57.863Z,15.16
2023-05-01T16:42:54.625Z,15.06
2023-05-01T16:57:50.736Z,14.89
2023-05-01T17:12:46.874Z,14.8
2023-05-01T17:27:43.303Z,14.05
2023-05-01T17:42:39.189Z,13.64
2023-05-01T17:57:34.691Z,13.51
2023-05-01T18:12:30.529Z,13.38
2023-05-01T18:27:26.604Z,13.43
2023-05-01T18:57:18.215Z,12.06
2023-05-01T19:12:13.912Z,12.04
2023-05-01T19:27:10.054Z,11.88
2023-05-01T19:42:06.035Z,11.68
2023-05-01T19:57:01.968Z,11.59
2023-05-01T20:11:57.999Z,11
2023-05-01T20:26:53.603Z,10.55
2023-05-01T20:41:49.464Z,10.42
2023-05-01T20:56:46.144Z,10.15
2023-05-01T21:11:42.161Z,9.53
2023-05-01T21:26:38.247Z,10.08
2023-05-01T21:41:34.377Z,9.69
2023-05-01T21:56:30.364Z,9.47
2023-05-01T22:11:26.330Z,9.1
2023-05-01T22:26:22.609Z,8.6
2023-05-01T22:41:17.955Z,8.58
2023-05-01T22:56:14.162Z,8.55
2023-05-01T23:11:10.006Z,9.08
2023-05-01T23:26:06.285Z,9.26
2023-05-01T23:41:02.520Z,9.48
2023-05-01T23:55:59.100Z,9.78
